sensor_id;sensor_type;location;lat;lon;timestamp;P1;durP1;ratioP1;P2;durP2;ratioP2
49890;SDS011;35780;55.568;37.492;2022-08-19T00:01:44;14.02;;;8.55;;
49890;SDS011;35780;55.568;37.492;2022-08-19T00:04:12;13.43;;;7.80;;
49890;SDS011;35780;55.568;37.492;2022-08-19T00:06:39;10.68;;;6.88;;
49890;SDS011;35780;55.568;37.492;2022-08-19T00:09:06;18.83;;;6.63;;
49890;SDS011;35780;55.568;37.492;2022-08-19T00:11:33;13.00;;;5.93;;
49890;SDS011;35780;55.568;37.492;2022-08-19T00:14:01;9.70;;;5.68;;
49890;SDS011;35780;55.568;37.492;2022-08-19T00:16:26;11.07;;;6.22;;
49890;SDS011;35780;55.568;37.492;2022-08-19T00:18:55;13.07;;;6.32;;
49890;SDS011;35780;55.568;37.492;2022-08-19T00:21:21;18.00;;;6.35;;
49890;SDS011;35780;55.568;37.492;2022-08-19T00:23:52;11.45;;;5.57;;
49890;SDS011;35780;55.568;37.492;2022-08-19T00:26:18;9.95;;;5.05;;
49890;SDS011;35780;55.568;37.492;2022-08-19T00:28:44;9.80;;;4.65;;
49890;SDS011;35780;55.568;37.492;2022-08-19T00:31:11;9.80;;;4.70;;
49890;SDS011;35780;55.568;37.492;2022-08-19T00:33:36;11.90;;;5.40;;
49890;SDS011;35780;55.568;37.492;2022-08-19T00:36:04;8.38;;;5.00;;
49890;SDS011;35780;55.568;37.492;2022-08-19T00:38:32;12.93;;;5.50;;
49890;SDS011;35780;55.568;37.492;2022-08-19T00:40:58;14.75;;;6.28;;
49890;SDS011;35780;55.568;37.492;2022-08-19T00:43:25;10.85;;;5.57;;
49890;SDS011;35780;55.568;37.492;2022-08-19T00:45:52;10.15;;;5.35;;
49890;SDS011;35780;55.568;37.492;2022-08-19T00:48:18;14.77;;;4.95;;
49890;SDS011;35780;55.568;37.492;2022-08-19T00:50:44;9.95;;;5.63;;
49890;SDS011;35780;55.568;37.492;2022-08-19T00:53:11;13.80;;;5.80;;
49890;SDS011;35780;55.568;37.492;2022-08-19T00:55:37;16.52;;;6.28;;
49890;SDS011;35780;55.568;37.492;2022-08-19T00:58:07;20.60;;;6.65;;
49890;SDS011;35780;55.568;37.492;2022-08-19T01:00:36;18.25;;;6.63;;
49890;SDS011;35780;55.568;37.492;2022-08-19T01:03:03;16.50;;;5.85;;
49890;SDS011;35780;55.568;37.492;2022-08-19T01:05:33;19.38;;;6.85;;
49890;SDS011;35780;55.568;37.492;2022-08-19T01:08:00;18.52;;;6.50;;
49890;SDS011;35780;55.568;37.492;2022-08-19T01:10:29;14.70;;;6.43;;
49890;SDS011;35780;55.568;37.492;2022-08-19T01:12:57;16.05;;;6.82;;
49890;SDS011;35780;55.568;37.492;2022-08-19T01:15:25;19.40;;;7.07;;
49890;SDS011;35780;55.568;37.492;2022-08-19T01:17:54;12.77;;;6.82;;
49890;SDS011;35780;55.568;37.492;2022-08-19T01:20:22;20.65;;;6.70;;
49890;SDS011;35780;55.568;37.492;2022-08-19T01:22:49;14.15;;;7.22;;
49890;SDS011;35780;55.568;37.492;2022-08-19T01:25:20;13.35;;;6.45;;
49890;SDS011;35780;55.568;37.492;2022-08-19T01:27:48;16.90;;;6.22;;
49890;SDS011;35780;55.568;37.492;2022-08-19T01:30:20;18.35;;;7.05;;
49890;SDS011;35780;55.568;37.492;2022-08-19T01:32:50;12.27;;;5.68;;
49890;SDS011;35780;55.568;37.492;2022-08-19T01:35:16;15.70;;;5.25;;
49890;SDS011;35780;55.568;37.492;2022-08-19T01:37:53;12.38;;;5.93;;
49890;SDS011;35780;55.568;37.492;2022-08-19T01:40:24;11.93;;;4.88;;
49890;SDS011;35780;55.568;37.492;2022-08-19T01:42:52;11.65;;;5.13;;
49890;SDS011;35780;55.568;37.492;2022-08-19T01:45:18;12.48;;;5.47;;
49890;SDS011;35780;55.568;37.492;2022-08-19T01:47:45;11.50;;;4.68;;
49890;SDS011;35780;55.568;37.492;2022-08-19T01:50:11;9.57;;;4.25;;
49890;SDS011;35780;55.568;37.492;2022-08-19T01:52:39;9.20;;;4.00;;
49890;SDS011;35780;55.568;37.492;2022-08-19T01:55:07;7.50;;;3.80;;
49890;SDS011;35780;55.568;37.492;2022-08-19T01:57:34;8.38;;;3.90;;
49890;SDS011;35780;55.568;37.492;2022-08-19T01:59:59;9.27;;;4.13;;
49890;SDS011;35780;55.568;37.492;2022-08-19T02:02:29;11.05;;;4.20;;
49890;SDS011;35780;55.568;37.492;2022-08-19T02:04:55;13.95;;;5.00;;
49890;SDS011;35780;55.568;37.492;2022-08-19T02:07:20;9.40;;;3.97;;
49890;SDS011;35780;55.568;37.492;2022-08-19T02:09:47;7.70;;;3.80;;
49890;SDS011;35780;55.568;37.492;2022-08-19T02:12:13;9.40;;;4.05;;
49890;SDS011;35780;55.568;37.492;2022-08-19T02:14:39;7.75;;;3.80;;
49890;SDS011;35780;55.568;37.492;2022-08-19T02:17:04;6.20;;;3.78;;
49890;SDS011;35780;55.568;37.492;2022-08-19T02:19:30;7.30;;;3.78;;
49890;SDS011;35780;55.568;37.492;2022-08-19T02:21:57;7.72;;;3.65;;
49890;SDS011;35780;55.568;37.492;2022-08-19T02:24:24;11.10;;;3.58;;
49890;SDS011;35780;55.568;37.492;2022-08-19T02:26:50;14.65;;;4.20;;
49890;SDS011;35780;55.568;37.492;2022-08-19T02:29:16;5.65;;;3.70;;
49890;SDS011;35780;55.568;37.492;2022-08-19T02:31:42;12.95;;;4.20;;
49890;SDS011;35780;55.568;37.492;2022-08-19T02:34:07;8.40;;;4.95;;
49890;SDS011;35780;55.568;37.492;2022-08-19T02:36:33;10.60;;;4.03;;
49890;SDS011;35780;55.568;37.492;2022-08-19T02:38:59;16.58;;;4.75;;
49890;SDS011;35780;55.568;37.492;2022-08-19T02:41:26;12.45;;;3.40;;
49890;SDS011;35780;55.568;37.492;2022-08-19T02:43:54;8.63;;;3.50;;
49890;SDS011;35780;55.568;37.492;2022-08-19T02:46:22;11.23;;;4.03;;
49890;SDS011;35780;55.568;37.492;2022-08-19T02:48:53;11.63;;;3.78;;
49890;SDS011;35780;55.568;37.492;2022-08-19T02:51:26;12.18;;;3.80;;
49890;SDS011;35780;55.568;37.492;2022-08-19T02:53:53;7.45;;;3.65;;
49890;SDS011;35780;55.568;37.492;2022-08-19T02:56:21;13.25;;;3.50;;
49890;SDS011;35780;55.568;37.492;2022-08-19T02:58:47;7.97;;;3.90;;
49890;SDS011;35780;55.568;37.492;2022-08-19T03:01:20;11.00;;;3.92;;
49890;SDS011;35780;55.568;37.492;2022-08-19T03:03:47;8.48;;;3.85;;
49890;SDS011;35780;55.568;37.492;2022-08-19T03:06:14;8.93;;;3.92;;
49890;SDS011;35780;55.568;37.492;2022-08-19T03:08:41;9.10;;;3.70;;
49890;SDS011;35780;55.568;37.492;2022-08-19T03:11:12;10.98;;;3.67;;
49890;SDS011;35780;55.568;37.492;2022-08-19T03:13:39;6.35;;;3.70;;
49890;SDS011;35780;55.568;37.492;2022-08-19T03:16:05;16.25;;;3.63;;
49890;SDS011;35780;55.568;37.492;2022-08-19T03:18:31;10.68;;;3.55;;
49890;SDS011;35780;55.568;37.492;2022-08-19T03:20:56;11.65;;;3.53;;
49890;SDS011;35780;55.568;37.492;2022-08-19T03:23:22;8.05;;;3.40;;
49890;SDS011;35780;55.568;37.492;2022-08-19T03:25:48;5.35;;;3.70;;
49890;SDS011;35780;55.568;37.492;2022-08-19T03:28:15;5.82;;;3.25;;
49890;SDS011;35780;55.568;37.492;2022-08-19T03:30:41;9.18;;;3.83;;
49890;SDS011;35780;55.568;37.492;2022-08-19T03:33:09;6.88;;;3.20;;
49890;SDS011;35780;55.568;37.492;2022-08-19T03:35:37;10.02;;;3.88;;
49890;SDS011;35780;55.568;37.492;2022-08-19T03:38:06;7.00;;;3.53;;
49890;SDS011;35780;55.568;37.492;2022-08-19T03:40:32;8.05;;;3.60;;
49890;SDS011;35780;55.568;37.492;2022-08-19T03:43:01;5.90;;;3.70;;
49890;SDS011;35780;55.568;37.492;2022-08-19T03:45:27;12.25;;;3.47;;
49890;SDS011;35780;55.568;37.492;2022-08-19T03:47:53;11.52;;;3.70;;
49890;SDS011;35780;55.568;37.492;2022-08-19T03:50:18;6.38;;;3.47;;
49890;SDS011;35780;55.568;37.492;2022-08-19T03:52:48;8.00;;;3.67;;
49890;SDS011;35780;55.568;37.492;2022-08-19T03:55:17;7.25;;;3.55;;
49890;SDS011;35780;55.568;37.492;2022-08-19T03:57:43;12.45;;;4.03;;
49890;SDS011;35780;55.568;37.492;2022-08-19T04:00:11;12.05;;;3.70;;
49890;SDS011;35780;55.568;37.492;2022-08-19T04:02:37;8.63;;;4.00;;
49890;SDS011;35780;55.568;37.492;2022-08-19T04:05:02;10.20;;;4.10;;
49890;SDS011;35780;55.568;37.492;2022-08-19T04:07:28;11.90;;;4.40;;
49890;SDS011;35780;55.568;37.492;2022-08-19T04:09:54;11.40;;;3.58;;
49890;SDS011;35780;55.568;37.492;2022-08-19T04:12:19;12.60;;;4.38;;
49890;SDS011;35780;55.568;37.492;2022-08-19T04:14:45;7.72;;;3.85;;
49890;SDS011;35780;55.568;37.492;2022-08-19T04:17:11;8.10;;;4.30;;
49890;SDS011;35780;55.568;37.492;2022-08-19T04:19:38;11.40;;;3.90;;
49890;SDS011;35780;55.568;37.492;2022-08-19T04:22:04;6.95;;;3.50;;
49890;SDS011;35780;55.568;37.492;2022-08-19T04:24:29;13.52;;;4.68;;
49890;SDS011;35780;55.568;37.492;2022-08-19T04:26:55;11.07;;;5.38;;
49890;SDS011;35780;55.568;37.492;2022-08-19T04:29:22;13.95;;;4.68;;
49890;SDS011;35780;55.568;37.492;2022-08-19T04:31:50;11.68;;;4.40;;
49890;SDS011;35780;55.568;37.492;2022-08-19T04:34:17;9.10;;;4.13;;
49890;SDS011;35780;55.568;37.492;2022-08-19T04:36:47;8.95;;;4.20;;
49890;SDS011;35780;55.568;37.492;2022-08-19T04:39:16;7.13;;;3.90;;
49890;SDS011;35780;55.568;37.492;2022-08-19T04:41:44;8.80;;;4.28;;
49890;SDS011;35780;55.568;37.492;2022-08-19T04:44:29;18.38;;;5.35;;
49890;SDS011;35780;55.568;37.492;2022-08-19T04:46:59;16.20;;;5.28;;
49890;SDS011;35780;55.568;37.492;2022-08-19T04:49:25;9.10;;;4.35;;
49890;SDS011;35780;55.568;37.492;2022-08-19T04:51:52;9.38;;;4.68;;
49890;SDS011;35780;55.568;37.492;2022-08-19T04:54:19;13.15;;;4.57;;
49890;SDS011;35780;55.568;37.492;2022-08-19T04:56:48;10.43;;;4.88;;
49890;SDS011;35780;55.568;37.492;2022-08-19T04:59:15;15.10;;;6.25;;
49890;SDS011;35780;55.568;37.492;2022-08-19T05:01:42;8.23;;;5.07;;
49890;SDS011;35780;55.568;37.492;2022-08-19T05:04:07;11.25;;;4.82;;
49890;SDS011;35780;55.568;37.492;2022-08-19T05:06:33;12.07;;;5.88;;
49890;SDS011;35780;55.568;37.492;2022-08-19T05:09:00;8.48;;;4.72;;
49890;SDS011;35780;55.568;37.492;2022-08-19T05:11:28;13.35;;;4.55;;
49890;SDS011;35780;55.568;37.492;2022-08-19T05:13:56;12.77;;;4.53;;
49890;SDS011;35780;55.568;37.492;2022-08-19T05:16:22;13.23;;;4.88;;
49890;SDS011;35780;55.568;37.492;2022-08-19T05:18:49;14.65;;;4.97;;
49890;SDS011;35780;55.568;37.492;2022-08-19T05:21:33;9.35;;;4.38;;
49890;SDS011;35780;55.568;37.492;2022-08-19T05:24:18;10.77;;;4.93;;
49890;SDS011;35780;55.568;37.492;2022-08-19T05:26:46;14.95;;;5.57;;
49890;SDS011;35780;55.568;37.492;2022-08-19T05:29:13;13.43;;;7.45;;
49890;SDS011;35780;55.568;37.492;2022-08-19T05:31:39;16.25;;;8.35;;
49890;SDS011;35780;55.568;37.492;2022-08-19T05:34:06;9.80;;;5.50;;
49890;SDS011;35780;55.568;37.492;2022-08-19T05:36:39;22.30;;;6.53;;
49890;SDS011;35780;55.568;37.492;2022-08-19T05:39:11;8.68;;;4.30;;
49890;SDS011;35780;55.568;37.492;2022-08-19T05:41:44;11.00;;;4.90;;
49890;SDS011;35780;55.568;37.492;2022-08-19T05:44:11;11.20;;;5.32;;
49890;SDS011;35780;55.568;37.492;2022-08-19T05:46:37;18.13;;;6.63;;
49890;SDS011;35780;55.568;37.492;2022-08-19T05:49:07;14.75;;;5.03;;
49890;SDS011;35780;55.568;37.492;2022-08-19T05:51:33;11.25;;;6.45;;
49890;SDS011;35780;55.568;37.492;2022-08-19T05:54:01;15.85;;;5.10;;
49890;SDS011;35780;55.568;37.492;2022-08-19T05:56:27;11.05;;;5.47;;
49890;SDS011;35780;55.568;37.492;2022-08-19T05:58:55;12.60;;;5.43;;
49890;SDS011;35780;55.568;37.492;2022-08-19T06:01:21;14.23;;;5.65;;
49890;SDS011;35780;55.568;37.492;2022-08-19T06:03:47;11.70;;;5.00;;
49890;SDS011;35780;55.568;37.492;2022-08-19T06:06:13;10.73;;;5.50;;
49890;SDS011;35780;55.568;37.492;2022-08-19T06:08:40;15.45;;;5.35;;
49890;SDS011;35780;55.568;37.492;2022-08-19T06:11:42;12.25;;;5.82;;
49890;SDS011;35780;55.568;37.492;2022-08-19T06:14:04;16.52;;;5.10;;
49890;SDS011;35780;55.568;37.492;2022-08-19T06:16:33;21.65;;;6.10;;
49890;SDS011;35780;55.568;37.492;2022-08-19T06:19:00;12.27;;;5.07;;
49890;SDS011;35780;55.568;37.492;2022-08-19T06:21:28;11.20;;;4.85;;
49890;SDS011;35780;55.568;37.492;2022-08-19T06:23:55;16.13;;;5.45;;
49890;SDS011;35780;55.568;37.492;2022-08-19T06:26:21;11.75;;;4.97;;
49890;SDS011;35780;55.568;37.492;2022-08-19T06:28:48;15.15;;;5.75;;
49890;SDS011;35780;55.568;37.492;2022-08-19T06:31:14;10.88;;;4.53;;
49890;SDS011;35780;55.568;37.492;2022-08-19T06:33:46;20.50;;;5.45;;
49890;SDS011;35780;55.568;37.492;2022-08-19T06:36:20;16.80;;;6.53;;
49890;SDS011;35780;55.568;37.492;2022-08-19T06:38:53;23.05;;;5.80;;
49890;SDS011;35780;55.568;37.492;2022-08-19T06:41:19;19.95;;;6.85;;
49890;SDS011;35780;55.568;37.492;2022-08-19T06:43:45;13.18;;;5.60;;
49890;SDS011;35780;55.568;37.492;2022-08-19T06:46:13;13.93;;;7.10;;
49890;SDS011;35780;55.568;37.492;2022-08-19T06:48:40;16.52;;;6.18;;
49890;SDS011;35780;55.568;37.492;2022-08-19T06:51:06;20.98;;;6.32;;
49890;SDS011;35780;55.568;37.492;2022-08-19T06:53:32;14.48;;;6.22;;
49890;SDS011;35780;55.568;37.492;2022-08-19T06:55:58;21.00;;;6.82;;
49890;SDS011;35780;55.568;37.492;2022-08-19T06:58:30;17.77;;;6.80;;
49890;SDS011;35780;55.568;37.492;2022-08-19T07:01:03;22.00;;;6.68;;
49890;SDS011;35780;55.568;37.492;2022-08-19T07:03:30;18.80;;;5.95;;
49890;SDS011;35780;55.568;37.492;2022-08-19T07:05:57;14.52;;;5.78;;
49890;SDS011;35780;55.568;37.492;2022-08-19T07:08:24;15.02;;;6.35;;
49890;SDS011;35780;55.568;37.492;2022-08-19T07:10:51;16.73;;;6.63;;
49890;SDS011;35780;55.568;37.492;2022-08-19T07:13:17;11.13;;;5.95;;
49890;SDS011;35780;55.568;37.492;2022-08-19T07:15:42;15.25;;;5.50;;
49890;SDS011;35780;55.568;37.492;2022-08-19T07:18:08;10.93;;;5.43;;
49890;SDS011;35780;55.568;37.492;2022-08-19T07:20:33;14.30;;;5.78;;
49890;SDS011;35780;55.568;37.492;2022-08-19T07:22:59;8.77;;;5.57;;
49890;SDS011;35780;55.568;37.492;2022-08-19T07:25:24;14.40;;;5.35;;
49890;SDS011;35780;55.568;37.492;2022-08-19T07:27:50;10.43;;;5.40;;
49890;SDS011;35780;55.568;37.492;2022-08-19T07:30:16;7.85;;;4.57;;
49890;SDS011;35780;55.568;37.492;2022-08-19T07:32:42;12.32;;;5.25;;
49890;SDS011;35780;55.568;37.492;2022-08-19T07:35:08;12.98;;;5.97;;
49890;SDS011;35780;55.568;37.492;2022-08-19T07:37:34;11.70;;;7.38;;
49890;SDS011;35780;55.568;37.492;2022-08-19T07:40:05;11.32;;;5.43;;
49890;SDS011;35780;55.568;37.492;2022-08-19T07:42:32;17.48;;;5.40;;
49890;SDS011;35780;55.568;37.492;2022-08-19T07:44:58;9.32;;;4.60;;
49890;SDS011;35780;55.568;37.492;2022-08-19T07:47:23;12.55;;;3.80;;
49890;SDS011;35780;55.568;37.492;2022-08-19T07:49:49;14.30;;;5.10;;
49890;SDS011;35780;55.568;37.492;2022-08-19T07:52:14;11.80;;;5.10;;
49890;SDS011;35780;55.568;37.492;2022-08-19T07:54:42;10.70;;;3.80;;
49890;SDS011;35780;55.568;37.492;2022-08-19T07:57:07;13.73;;;4.15;;
49890;SDS011;35780;55.568;37.492;2022-08-19T07:59:33;6.03;;;3.28;;
49890;SDS011;35780;55.568;37.492;2022-08-19T08:02:00;14.90;;;4.97;;
49890;SDS011;35780;55.568;37.492;2022-08-19T08:04:26;8.15;;;3.53;;
49890;SDS011;35780;55.568;37.492;2022-08-19T08:07:11;10.75;;;3.78;;
49890;SDS011;35780;55.568;37.492;2022-08-19T08:09:55;14.18;;;4.22;;
49890;SDS011;35780;55.568;37.492;2022-08-19T08:12:22;15.57;;;3.75;;
49890;SDS011;35780;55.568;37.492;2022-08-19T08:14:57;12.85;;;4.00;;
49890;SDS011;35780;55.568;37.492;2022-08-19T08:17:30;10.00;;;3.92;;
49890;SDS011;35780;55.568;37.492;2022-08-19T08:19:57;11.82;;;4.15;;
49890;SDS011;35780;55.568;37.492;2022-08-19T08:22:22;11.73;;;3.80;;
49890;SDS011;35780;55.568;37.492;2022-08-19T08:25:11;8.48;;;3.97;;
49890;SDS011;35780;55.568;37.492;2022-08-19T08:27:41;11.45;;;3.80;;
49890;SDS011;35780;55.568;37.492;2022-08-19T08:30:08;8.38;;;3.67;;
49890;SDS011;35780;55.568;37.492;2022-08-19T08:32:39;13.55;;;3.58;;
49890;SDS011;35780;55.568;37.492;2022-08-19T08:35:06;9.70;;;3.50;;
49890;SDS011;35780;55.568;37.492;2022-08-19T08:37:33;9.30;;;3.30;;
49890;SDS011;35780;55.568;37.492;2022-08-19T08:40:02;8.23;;;3.30;;
49890;SDS011;35780;55.568;37.492;2022-08-19T08:42:34;5.53;;;3.17;;
49890;SDS011;35780;55.568;37.492;2022-08-19T08:45:06;5.30;;;3.78;;
49890;SDS011;35780;55.568;37.492;2022-08-19T08:47:38;6.30;;;3.40;;
49890;SDS011;35780;55.568;37.492;2022-08-19T08:50:06;10.02;;;3.70;;
49890;SDS011;35780;55.568;37.492;2022-08-19T08:52:37;13.25;;;4.20;;
49890;SDS011;35780;55.568;37.492;2022-08-19T08:55:12;12.25;;;3.63;;
49890;SDS011;35780;55.568;37.492;2022-08-19T09:00:11;20.42;;;4.07;;
49890;SDS011;35780;55.568;37.492;2022-08-19T09:02:42;14.25;;;3.95;;
49890;SDS011;35780;55.568;37.492;2022-08-19T09:05:08;5.55;;;3.75;;
49890;SDS011;35780;55.568;37.492;2022-08-19T09:07:52;4.97;;;3.30;;
49890;SDS011;35780;55.568;37.492;2022-08-19T09:16:22;6.10;;;3.35;;
49890;SDS011;35780;55.568;37.492;2022-08-19T09:18:53;8.57;;;3.15;;
49890;SDS011;35780;55.568;37.492;2022-08-19T09:21:23;8.25;;;3.10;;
49890;SDS011;35780;55.568;37.492;2022-08-19T09:23:50;9.27;;;3.00;;
49890;SDS011;35780;55.568;37.492;2022-08-19T09:26:17;9.45;;;3.35;;
49890;SDS011;35780;55.568;37.492;2022-08-19T09:28:46;10.65;;;3.42;;
49890;SDS011;35780;55.568;37.492;2022-08-19T09:31:14;6.22;;;2.78;;
49890;SDS011;35780;55.568;37.492;2022-08-19T09:33:51;10.38;;;3.30;;
49890;SDS011;35780;55.568;37.492;2022-08-19T09:36:18;18.17;;;7.10;;
49890;SDS011;35780;55.568;37.492;2022-08-19T09:38:45;9.23;;;3.65;;
49890;SDS011;35780;55.568;37.492;2022-08-19T09:41:16;7.88;;;3.67;;
49890;SDS011;35780;55.568;37.492;2022-08-19T09:43:44;12.75;;;3.38;;
49890;SDS011;35780;55.568;37.492;2022-08-19T09:46:11;6.65;;;3.53;;
49890;SDS011;35780;55.568;37.492;2022-08-19T09:48:37;8.43;;;3.08;;
49890;SDS011;35780;55.568;37.492;2022-08-19T09:53:41;9.13;;;3.05;;
49890;SDS011;35780;55.568;37.492;2022-08-19T09:56:07;6.53;;;3.05;;
49890;SDS011;35780;55.568;37.492;2022-08-19T09:58:34;5.88;;;3.05;;
49890;SDS011;35780;55.568;37.492;2022-08-19T10:01:01;5.95;;;2.60;;
49890;SDS011;35780;55.568;37.492;2022-08-19T10:03:28;11.45;;;3.05;;
49890;SDS011;35780;55.568;37.492;2022-08-19T10:05:55;12.00;;;2.95;;
49890;SDS011;35780;55.568;37.492;2022-08-19T10:08:23;7.47;;;2.95;;
49890;SDS011;35780;55.568;37.492;2022-08-19T10:10:51;11.95;;;3.97;;
49890;SDS011;35780;55.568;37.492;2022-08-19T10:13:17;10.68;;;3.30;;
49890;SDS011;35780;55.568;37.492;2022-08-19T10:15:47;16.50;;;3.23;;
49890;SDS011;35780;55.568;37.492;2022-08-19T10:18:16;3.72;;;2.45;;
49890;SDS011;35780;55.568;37.492;2022-08-19T10:20:43;8.88;;;3.33;;
49890;SDS011;35780;55.568;37.492;2022-08-19T10:23:10;7.40;;;3.00;;
49890;SDS011;35780;55.568;37.492;2022-08-19T10:25:36;6.95;;;3.08;;
49890;SDS011;35780;55.568;37.492;2022-08-19T10:28:02;5.03;;;2.78;;
49890;SDS011;35780;55.568;37.492;2022-08-19T10:30:28;7.50;;;2.85;;
49890;SDS011;35780;55.568;37.492;2022-08-19T10:32:54;10.02;;;3.10;;
49890;SDS011;35780;55.568;37.492;2022-08-19T10:35:19;12.38;;;2.90;;
49890;SDS011;35780;55.568;37.492;2022-08-19T10:37:45;9.15;;;3.22;;
49890;SDS011;35780;55.568;37.492;2022-08-19T10:40:11;9.95;;;3.45;;
49890;SDS011;35780;55.568;37.492;2022-08-19T10:42:37;9.68;;;2.90;;
49890;SDS011;35780;55.568;37.492;2022-08-19T10:45:03;4.10;;;2.50;;
49890;SDS011;35780;55.568;37.492;2022-08-19T10:47:31;4.00;;;2.10;;
49890;SDS011;35780;55.568;37.492;2022-08-19T10:49:58;8.25;;;2.45;;
49890;SDS011;35780;55.568;37.492;2022-08-19T10:52:45;4.68;;;2.88;;
49890;SDS011;35780;55.568;37.492;2022-08-19T10:55:11;8.13;;;3.03;;
49890;SDS011;35780;55.568;37.492;2022-08-19T10:57:56;7.95;;;3.28;;
49890;SDS011;35780;55.568;37.492;2022-08-19T11:00:22;6.40;;;3.00;;
49890;SDS011;35780;55.568;37.492;2022-08-19T11:02:50;11.45;;;2.97;;
49890;SDS011;35780;55.568;37.492;2022-08-19T11:05:15;3.78;;;2.33;;
49890;SDS011;35780;55.568;37.492;2022-08-19T11:07:42;11.18;;;3.17;;
49890;SDS011;35780;55.568;37.492;2022-08-19T11:10:10;12.23;;;3.30;;
49890;SDS011;35780;55.568;37.492;2022-08-19T11:12:38;6.88;;;3.30;;
49890;SDS011;35780;55.568;37.492;2022-08-19T11:15:05;6.47;;;3.03;;
49890;SDS011;35780;55.568;37.492;2022-08-19T11:17:33;9.10;;;2.60;;
49890;SDS011;35780;55.568;37.492;2022-08-19T11:19:58;5.18;;;2.95;;
49890;SDS011;35780;55.568;37.492;2022-08-19T11:22:28;6.28;;;2.80;;
49890;SDS011;35780;55.568;37.492;2022-08-19T11:24:53;5.70;;;3.72;;
49890;SDS011;35780;55.568;37.492;2022-08-19T11:27:20;12.75;;;3.25;;
49890;SDS011;35780;55.568;37.492;2022-08-19T11:29:46;8.20;;;3.47;;
49890;SDS011;35780;55.568;37.492;2022-08-19T11:32:11;6.00;;;3.10;;
49890;SDS011;35780;55.568;37.492;2022-08-19T11:34:38;9.82;;;4.10;;
49890;SDS011;35780;55.568;37.492;2022-08-19T11:37:04;8.40;;;3.70;;
49890;SDS011;35780;55.568;37.492;2022-08-19T11:39:31;7.85;;;3.55;;
49890;SDS011;35780;55.568;37.492;2022-08-19T11:41:57;9.50;;;3.30;;
49890;SDS011;35780;55.568;37.492;2022-08-19T11:44:23;6.57;;;3.40;;
49890;SDS011;35780;55.568;37.492;2022-08-19T11:46:50;10.57;;;3.90;;
49890;SDS011;35780;55.568;37.492;2022-08-19T11:49:18;6.95;;;2.63;;
49890;SDS011;35780;55.568;37.492;2022-08-19T11:51:45;16.30;;;3.75;;
49890;SDS011;35780;55.568;37.492;2022-08-19T11:54:11;12.60;;;3.17;;
49890;SDS011;35780;55.568;37.492;2022-08-19T11:56:38;10.82;;;3.10;;
49890;SDS011;35780;55.568;37.492;2022-08-19T11:59:04;12.80;;;3.80;;
49890;SDS011;35780;55.568;37.492;2022-08-19T12:01:30;11.00;;;3.97;;
49890;SDS011;35780;55.568;37.492;2022-08-19T12:03:56;7.63;;;3.22;;
49890;SDS011;35780;55.568;37.492;2022-08-19T12:06:27;8.23;;;4.22;;
49890;SDS011;35780;55.568;37.492;2022-08-19T12:08:55;6.47;;;3.65;;
49890;SDS011;35780;55.568;37.492;2022-08-19T12:11:22;22.45;;;3.95;;
49890;SDS011;35780;55.568;37.492;2022-08-19T12:13:48;6.28;;;3.08;;
49890;SDS011;35780;55.568;37.492;2022-08-19T12:16:16;13.25;;;3.78;;
49890;SDS011;35780;55.568;37.492;2022-08-19T12:18:45;7.03;;;4.38;;
49890;SDS011;35780;55.568;37.492;2022-08-19T12:21:12;10.98;;;5.35;;
49890;SDS011;35780;55.568;37.492;2022-08-19T12:23:39;7.90;;;4.10;;
49890;SDS011;35780;55.568;37.492;2022-08-19T12:26:06;6.90;;;3.65;;
49890;SDS011;35780;55.568;37.492;2022-08-19T12:28:32;8.45;;;4.40;;
49890;SDS011;35780;55.568;37.492;2022-08-19T12:30:57;10.80;;;4.03;;
49890;SDS011;35780;55.568;37.492;2022-08-19T12:33:23;8.68;;;3.83;;
49890;SDS011;35780;55.568;37.492;2022-08-19T12:35:52;10.55;;;3.53;;
49890;SDS011;35780;55.568;37.492;2022-08-19T12:38:18;13.70;;;3.67;;
49890;SDS011;35780;55.568;37.492;2022-08-19T12:40:47;5.80;;;3.42;;
49890;SDS011;35780;55.568;37.492;2022-08-19T12:43:13;10.35;;;3.78;;
49890;SDS011;35780;55.568;37.492;2022-08-19T12:45:41;12.57;;;3.70;;
49890;SDS011;35780;55.568;37.492;2022-08-19T12:48:07;8.95;;;3.33;;
49890;SDS011;35780;55.568;37.492;2022-08-19T12:50:33;7.55;;;3.60;;
49890;SDS011;35780;55.568;37.492;2022-08-19T12:52:59;9.50;;;4.05;;
49890;SDS011;35780;55.568;37.492;2022-08-19T12:55:24;5.88;;;3.60;;
49890;SDS011;35780;55.568;37.492;2022-08-19T12:57:50;10.30;;;4.43;;
49890;SDS011;35780;55.568;37.492;2022-08-19T13:00:16;8.85;;;4.45;;
49890;SDS011;35780;55.568;37.492;2022-08-19T13:02:46;9.40;;;4.43;;
49890;SDS011;35780;55.568;37.492;2022-08-19T13:05:16;7.43;;;4.68;;
49890;SDS011;35780;55.568;37.492;2022-08-19T13:07:45;14.07;;;4.60;;
49890;SDS011;35780;55.568;37.492;2022-08-19T13:10:11;13.75;;;4.20;;
49890;SDS011;35780;55.568;37.492;2022-08-19T13:12:40;8.52;;;3.92;;
49890;SDS011;35780;55.568;37.492;2022-08-19T13:15:07;7.55;;;4.35;;
49890;SDS011;35780;55.568;37.492;2022-08-19T13:17:34;7.10;;;4.07;;
49890;SDS011;35780;55.568;37.492;2022-08-19T13:20:01;5.80;;;3.42;;
49890;SDS011;35780;55.568;37.492;2022-08-19T13:22:28;12.38;;;3.67;;
49890;SDS011;35780;55.568;37.492;2022-08-19T13:24:54;19.40;;;4.45;;
49890;SDS011;35780;55.568;37.492;2022-08-19T13:27:19;12.55;;;4.45;;
49890;SDS011;35780;55.568;37.492;2022-08-19T13:29:45;11.93;;;6.03;;
49890;SDS011;35780;55.568;37.492;2022-08-19T13:32:29;11.55;;;5.65;;
49890;SDS011;35780;55.568;37.492;2022-08-19T13:35:14;15.68;;;8.98;;
49890;SDS011;35780;55.568;37.492;2022-08-19T13:37:40;12.68;;;8.10;;
49890;SDS011;35780;55.568;37.492;2022-08-19T13:40:10;14.27;;;8.50;;
49890;SDS011;35780;55.568;37.492;2022-08-19T13:42:42;12.43;;;10.02;;
49890;SDS011;35780;55.568;37.492;2022-08-19T13:45:09;15.60;;;10.55;;
49890;SDS011;35780;55.568;37.492;2022-08-19T13:47:35;19.45;;;10.27;;
49890;SDS011;35780;55.568;37.492;2022-08-19T13:50:11;21.65;;;11.70;;
49890;SDS011;35780;55.568;37.492;2022-08-19T13:52:38;15.95;;;10.30;;
49890;SDS011;35780;55.568;37.492;2022-08-19T13:55:05;17.80;;;10.93;;
49890;SDS011;35780;55.568;37.492;2022-08-19T13:57:31;14.95;;;10.15;;
49890;SDS011;35780;55.568;37.492;2022-08-19T13:59:57;14.43;;;10.23;;
49890;SDS011;35780;55.568;37.492;2022-08-19T14:02:24;20.88;;;11.27;;
49890;SDS011;35780;55.568;37.492;2022-08-19T14:04:50;21.85;;;10.68;;
49890;SDS011;35780;55.568;37.492;2022-08-19T14:07:15;15.60;;;8.00;;
49890;SDS011;35780;55.568;37.492;2022-08-19T14:09:41;14.13;;;7.40;;
49890;SDS011;35780;55.568;37.492;2022-08-19T14:12:06;18.95;;;8.40;;
49890;SDS011;35780;55.568;37.492;2022-08-19T14:14:35;15.00;;;7.72;;
49890;SDS011;35780;55.568;37.492;2022-08-19T14:17:05;12.95;;;6.93;;
49890;SDS011;35780;55.568;37.492;2022-08-19T14:19:31;14.07;;;7.50;;
49890;SDS011;35780;55.568;37.492;2022-08-19T14:21:57;13.43;;;7.13;;
49890;SDS011;35780;55.568;37.492;2022-08-19T14:24:22;13.13;;;7.85;;
49890;SDS011;35780;55.568;37.492;2022-08-19T14:26:48;14.93;;;6.47;;
49890;SDS011;35780;55.568;37.492;2022-08-19T14:29:13;14.13;;;6.80;;
49890;SDS011;35780;55.568;37.492;2022-08-19T14:31:39;10.15;;;6.10;;
49890;SDS011;35780;55.568;37.492;2022-08-19T14:34:08;10.43;;;6.13;;
49890;SDS011;35780;55.568;37.492;2022-08-19T14:36:35;12.75;;;6.85;;
49890;SDS011;35780;55.568;37.492;2022-08-19T14:39:01;14.13;;;6.32;;
49890;SDS011;35780;55.568;37.492;2022-08-19T14:41:26;11.10;;;6.90;;